東京, 日本

2014年8月01日 18時48分 (GMT +0900)
Tokyo (Haneda) International (RJTT) 海拔 26 ft | 35.55 °N, 139.78 °E | Change Station

Current weather conditions updated 18 minutes ago

Partly Cloudy
局部有雲
82 °F
感覺像 91 °F
20
風 變化 風 來自

明天比今天 暖和

今日
高 -- | 低 -- °F
--% 降水機率
昨天
高 -- | 低 -- °F
Precip. -- 英寸
4:48 AM 6:45 PM
眉月, 25% visible
氣壓 29.83 英寸
能見度 6.2 英里
多雲 少數 2000 ft
少數 3000 ft
高溫指數 91 °F
露點 77 °F
濕度 84%
降雨量 0.00 英寸
積雪深度 不適用。
紫外線 0 / 12
花粉 不適用。
空氣質素 不適用。
Flu Activity 不適用。
METAR RJTT 010930Z 17017KT 9999 FEW020 FEW030CB SCT/// 28/25 Q1010 NOSIG RMK 1CU020 1CB030 A2983 CB 50KM W-NW MOV SE

More Conditions Fewer Conditions

氣壓 29.83 英寸
能見度 6.2 英里
多雲 少數 2000 ft
少數 3000 ft
高溫指數 91 °F
露點 77 °F
濕度 84%
降雨量 0.00 英寸
積雪深度 不適用。
紫外線 0 / 12
花粉 不適用。
空氣質素 不適用。
Flu Activity 不適用。
METAR RJTT 010930Z 17017KT 9999 FEW020 FEW030CB SCT/// 28/25 Q1010 NOSIG RMK 1CU020 1CB030 A2983 CB 50KM W-NW MOV SE

More Conditions Fewer Conditions

10-Day Weather Forecast

Almanac

天文

Aug. 01, 2014 昇起 降落
實際時間 04:48 JST 18:45 JST
民用曙暮光 04:20 JST 19:13 JST
航海曙暮光 03:46 JST 19:47 JST
天文學微明 03:09 JST 20:23 JST
月亮 09:24 JST 21:22 JST
可見光的長度 14h 52m
白晝時間
13h 56m
Tomorrow will be 1m 40s shorter.
眉月, 25% of the Moon is Illuminated
今日
眉月
8月 3
第一季
8月 10
滿月
8月 17
第四季
8月 25

昨天之最

國家高溫 國家低溫

Community

WunderPhotos

Upload Photos

1,739,530 照片已上傳!

Nearby

積雪量

Not available.

地震活動

城市 距離 時間和日期
附近沒有最近發生的地震活動。
顯示的最小幅度是2.5。

沿海水溫

地點 溫度
無任何天氣監測站報告

附近的氣象站

氣象站位置 溫度 高溫指數 露點 濕度 Precip. 海拔 最近更新時間 類型
Kamata, Ota-Ku 86.2 °F 98 °F 77 °F 75% 東南  風  6.0 英里每小時 0.00 英寸 / hr 30 ft 6:48 PM JST 速射
Tamagawaen, Oota-city 86.6 °F 105 °F 82 °F 86% 西南偏南  風  1.2 英里每小時 0.00 英寸 / hr 40 ft 6:48 PM JST 速射
Meguro-ku, Meguro-ku 87.6 °F 99 °F 76 °F 69% 東南偏南  風  0.0 英里每小時 0.00 英寸 / hr 141 ft 6:40 PM JST 正常
Nezu, Bunkyo 92.6 °F 108 °F 78 °F 62% 東南  風  0.0 英里每小時 0.00 英寸 / hr 30 ft 6:45 PM JST 正常
Kyuden, Setagaya 87.4 °F 98 °F 76 °F 68% 東南偏東  風  0.0 英里每小時 0.00 英寸 / hr 164 ft 6:40 PM JST 正常
ikuta,Japan, Kawasakishi 85.1 °F 93 °F 75 °F 71% 東南偏南  風  5.0 英里每小時 0.00 英寸 / hr 285 ft 6:47 PM JST 正常
Kosuge-st, Adachi 85.3 °F 97 °F 78 °F 79%  風  5.4 英里每小時 0.00 英寸 / hr 40 ft 6:45 PM JST 正常
Green Town, Yokohama 84.9 °F 92 °F 74 °F 69% 東南偏東  風  0.0 英里每小時 0.00 英寸 / hr 223 ft 6:45 PM JST 正常
Totsukaku-Kashiodai, 横浜市 82.8 °F 91 °F 77 °F 82% 東南偏東  風  1.3 英里每小時 0.00 英寸 / hr 112 ft 6:48 PM JST 速射
Machida 86.6 °F 93 °F 72 °F 63% 東南  風  1.0 英里每小時 0.00 英寸 / hr 232 ft 6:43 PM JST 正常
Kawaguchi 86.2 °F 97 °F 77 °F 74% 東北  風  8.0 英里每小時 0.00 英寸 / hr 13 ft 6:48 PM JST 速射
Funabashi, Funabashi 85.5 °F 96 °F 76 °F 74%  風  4.0 英里每小時 0.00 英寸 / hr 92 ft 6:48 PM JST 速射
%u65E5%u91CE%u5E02 84.6 °F 91 °F 72 °F 67% 東北偏東  風  7.0 英里每小時 0.00 英寸 / hr 282 ft 6:40 PM JST 正常
Central of Kanagawa, Atsugi 85.0 °F 94 °F 75 °F 73% 東南  風  1.0 英里每小時 0.00 英寸 / hr 79 ft 6:45 PM JST 正常

Show More Stations Show Fewer Stations